Hedrick Grove, North Carolina
Current Conditions -  °F | °C
As of 9:55 PM on Wednesday 26 Nov 2014 (Local Time) from KEXX Reporting Station
Heavy Rain Heavy Rain  
Wind Chill: 41°   Ceiling: 3800
Heat Index: 41°   Visibility: 5mi
Dew Point: 40°   Wind: 0mph
Humidity: 97%   Direction: NA
Pressure: 30.03"   Gusts: NA
Location:  35.7974°N, 80.2541°W
Report Text: KEXX 270255Z AUTO 00000KT 5SM +RA SCT030 BKN038 05/05 A3003 RMK AO2 P0005 60005 T00510046
Loading
Personal Weather Stations






























Interactive Weather Map New forecast layout! Learn more

10-Day Weather Forecast

Advertisements
Track Severe Weather on mobile